Time;durP1;ratioP1;P1;durP2;ratioP2;P2;SDS_P1;SDS_P2;PMS_P1;PMS_P2;Temp;Humidity;BMP_temperature;BMP_pressure;BME280_temperature;BME280_humidity;BME280_pressure;Samples;Min_cycle;Max_cycle;Signal;HPM_P1;HPM_P2
2024/03/16 00:01:28;;;;;;;13.95;4.40;;;12.00;91.00;;;;;;4860516;29;20446;-82
2024/03/16 00:03:54;;;;;;;17.80;4.93;;;12.00;91.10;;;;;;4861476;29;20025;-73
2024/03/16 00:06:19;;;;;;;15.55;4.45;;;11.90;91.40;;;;;;4860258;29;20065;-77
2024/03/16 00:08:45;;;;;;;16.05;5.18;;;11.90;91.40;;;;;;4865421;29;21101;-73
2024/03/16 00:11:10;;;;;;;17.33;5.38;;;11.90;91.40;;;;;;4851964;29;20041;-74
2024/03/16 00:13:36;;;;;;;12.48;5.15;;;11.80;91.60;;;;;;4867304;29;20112;-74
2024/03/16 00:16:02;;;;;;;14.18;4.85;;;11.90;91.60;;;;;;4860011;29;20395;-75
2024/03/16 00:18:28;;;;;;;13.10;5.20;;;11.80;91.60;;;;;;4859944;29;20029;-76
2024/03/16 00:20:55;;;;;;;14.45;5.38;;;11.90;91.50;;;;;;4845034;29;21267;-77
2024/03/16 00:23:20;;;;;;;12.80;5.25;;;11.80;91.50;;;;;;4859271;29;20081;-73
2024/03/16 00:25:46;;;;;;;15.00;5.65;;;11.90;91.60;;;;;;4862266;29;20518;-78
2024/03/16 00:28:12;;;;;;;14.57;5.25;;;11.80;91.60;;;;;;4865439;29;20116;-83
2024/03/16 00:30:37;;;;;;;16.63;5.22;;;11.90;91.50;;;;;;4864652;29;20395;-79
2024/03/16 00:33:04;;;;;;;15.40;4.78;;;11.80;91.50;;;;;;4868568;29;20029;-73
2024/03/16 00:35:30;;;;;;;12.77;4.57;;;11.80;91.50;;;;;;4866258;29;20029;-80
2024/03/16 00:37:55;;;;;;;15.57;5.35;;;11.90;91.50;;;;;;4868320;29;20043;-73
2024/03/16 00:40:21;;;;;;;13.68;5.40;;;11.80;91.80;;;;;;4868470;29;20040;-73
2024/03/16 00:42:47;;;;;;;15.07;5.50;;;11.90;92.00;;;;;;4866034;29;20061;-77
2024/03/16 00:45:12;;;;;;;13.48;4.95;;;11.80;92.10;;;;;;4866187;29;20036;-73
2024/03/16 00:47:38;;;;;;;12.75;5.60;;;11.80;92.30;;;;;;4865952;29;20041;-75
2024/03/16 00:50:05;;;;;;;16.15;5.90;;;11.80;92.40;;;;;;4865498;29;20027;-72
2024/03/16 00:52:30;;;;;;;13.77;4.50;;;11.80;92.40;;;;;;4863858;29;20057;-74
2024/03/16 00:54:56;;;;;;;15.35;4.95;;;11.80;92.30;;;;;;4850520;29;20036;-72
2024/03/16 00:57:23;;;;;;;15.05;4.80;;;11.80;92.60;;;;;;4845677;29;20049;-76
2024/03/16 00:59:49;;;;;;;15.77;5.70;;;11.80;92.60;;;;;;4865562;29;20099;-75
2024/03/16 01:02:14;;;;;;;13.88;5.53;;;11.70;92.70;;;;;;4858702;29;20045;-80
2024/03/16 01:04:40;;;;;;;15.55;5.60;;;11.70;92.70;;;;;;4865088;29;20033;-76
2024/03/16 01:07:06;;;;;;;12.90;5.10;;;11.70;92.90;;;;;;4862589;29;20049;-78
2024/03/16 01:09:31;;;;;;;14.95;4.93;;;11.80;92.90;;;;;;4848175;29;20068;-75
2024/03/16 01:11:57;;;;;;;17.48;6.13;;;11.80;92.90;;;;;;4861216;29;20125;-80
2024/03/16 01:14:23;;;;;;;17.45;6.03;;;11.70;92.90;;;;;;4850015;29;20029;-74
2024/03/16 01:16:48;;;;;;;15.80;6.10;;;11.70;93.10;;;;;;4862312;29;20073;-82
2024/03/16 01:19:14;;;;;;;21.55;7.60;;;11.60;93.20;;;;;;4866602;29;20152;-75
2024/03/16 01:21:40;;;;;;;18.92;8.48;;;11.60;93.30;;;;;;4851921;29;20037;-72
2024/03/16 01:24:05;;;;;;;16.83;8.02;;;11.70;93.30;;;;;;4866705;29;20578;-81
2024/03/16 01:26:31;;;;;;;19.98;8.48;;;11.60;93.40;;;;;;4866094;29;20623;-73
2024/03/16 01:28:59;;;;;;;16.25;7.95;;;11.60;93.50;;;;;;4866380;29;20044;-82
2024/03/16 01:31:26;;;;;;;15.85;9.68;;;11.60;93.80;;;;;;4867206;29;20072;-76
2024/03/16 01:33:52;;;;;;;17.80;10.38;;;11.60;93.80;;;;;;4869519;29;20029;-74
2024/03/16 01:36:17;;;;;;;19.08;10.98;;;11.50;94.00;;;;;;4870944;29;20049;-76
2024/03/16 01:38:44;;;;;;;21.60;11.43;;;11.50;94.00;;;;;;4869061;29;20025;-73
2024/03/16 01:41:10;;;;;;;20.45;11.20;;;11.50;94.10;;;;;;4870591;29;20127;-78
2024/03/16 01:43:36;;;;;;;24.50;12.90;;;11.40;94.30;;;;;;4869288;29;20029;-72
2024/03/16 01:46:01;;;;;;;23.85;14.50;;;11.40;94.40;;;;;;4868916;29;20043;-72
2024/03/16 01:48:27;;;;;;;26.88;13.80;;;11.40;94.60;;;;;;4869830;29;20447;-80
2024/03/16 01:50:54;;;;;;;25.27;13.20;;;11.30;94.70;;;;;;4854550;29;20379;-74
2024/03/16 01:53:20;;;;;;;28.52;13.38;;;11.30;94.90;;;;;;4855139;29;20870;-78
2024/03/16 01:55:45;;;;;;;29.65;15.35;;;11.30;94.90;;;;;;4868990;29;20064;-78
2024/03/16 01:58:11;;;;;;;26.40;14.40;;;11.20;95.00;;;;;;4855744;29;20033;-72
2024/03/16 02:00:36;;;;;;;22.95;11.75;;;11.10;95.00;;;;;;4868202;29;20273;-83
2024/03/16 02:03:02;;;;;;;22.83;11.88;;;11.10;94.60;;;;;;4873099;29;20036;-78
2024/03/16 02:05:29;;;;;;;18.58;11.43;;;10.80;93.80;;;;;;4868449;29;20036;-74
2024/03/16 02:07:54;;;;;;;22.40;11.40;;;10.70;93.70;;;;;;4870521;29;20037;-73
2024/03/16 02:10:21;;;;;;;18.58;10.50;;;10.60;93.90;;;;;;4866497;29;20037;-73
2024/03/16 02:12:47;;;;;;;19.45;10.95;;;10.60;93.60;;;;;;4870266;29;20036;-78
2024/03/16 02:15:13;;;;;;;19.52;10.52;;;10.50;93.40;;;;;;4868993;29;20030;-74
2024/03/16 02:17:40;;;;;;;17.15;10.40;;;10.40;93.40;;;;;;4852629;29;20059;-73
2024/03/16 02:20:14;;;;;;;16.55;9.88;;;10.30;93.50;;;;;;4867784;29;20133;-74
2024/03/16 02:22:40;;;;;;;16.77;10.82;;;10.30;93.50;;;;;;4866661;29;20063;-78
2024/03/16 02:25:07;;;;;;;16.13;10.43;;;10.20;93.70;;;;;;4864816;29;20042;-75
2024/03/16 02:27:32;;;;;;;21.95;10.90;;;10.20;94.00;;;;;;4868421;29;20041;-73
2024/03/16 02:29:58;;;;;;;19.38;10.85;;;10.20;94.10;;;;;;4873185;29;20060;-72
2024/03/16 02:32:24;;;;;;;18.65;11.30;;;10.10;94.20;;;;;;4869753;29;20092;-74
2024/03/16 02:34:50;;;;;;;15.13;10.68;;;10.10;94.20;;;;;;4869797;29;20036;-81
2024/03/16 02:37:16;;;;;;;21.90;11.60;;;10.10;94.20;;;;;;4867683;29;20041;-75
2024/03/16 02:39:42;;;;;;;17.95;10.98;;;10.10;94.20;;;;;;4867121;29;20029;-75
2024/03/16 02:42:08;;;;;;;15.98;9.88;;;10.00;94.20;;;;;;4854446;29;20137;-76
2024/03/16 02:44:34;;;;;;;16.77;9.75;;;10.10;94.20;;;;;;4871687;29;20112;-72
2024/03/16 02:46:59;;;;;;;20.83;10.50;;;10.00;94.00;;;;;;4855206;29;20093;-75
2024/03/16 02:49:28;;;;;;;18.17;9.63;;;10.00;94.00;;;;;;4852954;29;20506;-75
2024/03/16 02:51:54;;;;;;;15.07;8.98;;;9.90;93.80;;;;;;4869416;29;20045;-75
2024/03/16 02:54:19;;;;;;;14.40;8.77;;;9.80;93.50;;;;;;4872530;29;20398;-72
2024/03/16 02:56:45;;;;;;;16.85;8.50;;;9.80;93.40;;;;;;4867331;29;20444;-78
2024/03/16 02:59:12;;;;;;;16.55;8.43;;;9.90;93.40;;;;;;4868316;29;20065;-74
2024/03/16 03:01:38;;;;;;;14.07;7.68;;;9.80;93.20;;;;;;4865559;29;20560;-74
2024/03/16 03:04:05;;;;;;;16.70;7.70;;;9.80;93.10;;;;;;4862853;29;20475;-82
2024/03/16 03:06:32;;;;;;;13.38;8.05;;;9.80;92.90;;;;;;4868197;29;20083;-73
2024/03/16 03:08:57;;;;;;;16.02;8.02;;;9.80;93.00;;;;;;4872392;29;20041;-73
2024/03/16 03:11:25;;;;;;;15.70;8.05;;;9.80;93.00;;;;;;4871894;29;20033;-72
2024/03/16 03:13:50;;;;;;;17.13;7.13;;;9.80;92.80;;;;;;4871643;29;20037;-72
2024/03/16 03:16:19;;;;;;;13.90;7.57;;;9.70;93.00;;;;;;4867374;29;20070;-74
2024/03/16 03:18:49;;;;;;;17.27;8.38;;;9.80;93.00;;;;;;4870777;29;20127;-75
2024/03/16 03:21:15;;;;;;;14.18;7.32;;;9.80;93.10;;;;;;4867616;29;20051;-74
2024/03/16 03:23:41;;;;;;;14.05;7.10;;;9.70;93.00;;;;;;4866392;29;20036;-84
2024/03/16 03:26:08;;;;;;;17.50;7.75;;;9.80;93.10;;;;;;4870720;29;20049;-79
2024/03/16 03:28:37;;;;;;;14.93;8.30;;;9.80;93.10;;;;;;4866989;29;20032;-72
2024/03/16 03:31:04;;;;;;;13.70;7.35;;;9.70;93.10;;;;;;4864979;29;20542;-74
2024/03/16 03:33:30;;;;;;;16.08;7.03;;;9.80;93.20;;;;;;4867226;29;20224;-78
2024/03/16 03:35:55;;;;;;;16.98;7.43;;;9.80;93.20;;;;;;4869718;29;20138;-72
2024/03/16 03:38:21;;;;;;;17.20;8.07;;;9.80;93.30;;;;;;4870725;29;20036;-78
2024/03/16 03:40:47;;;;;;;15.73;8.00;;;9.80;93.20;;;;;;4868530;29;20051;-83
2024/03/16 03:43:21;;;;;;;14.85;7.63;;;9.80;93.30;;;;;;4869706;29;20919;-79
2024/03/16 03:45:50;;;;;;;15.98;7.13;;;9.80;93.20;;;;;;4864317;29;20056;-80
2024/03/16 03:50:48;;;;;;;15.57;7.30;;;9.80;93.30;;;;;;4869198;29;20394;-73
2024/03/16 03:53:15;;;;;;;13.25;6.65;;;9.80;93.20;;;;;;4871817;29;20029;-74
2024/03/16 03:55:41;;;;;;;14.55;7.47;;;9.80;93.20;;;;;;4868667;29;20405;-81
2024/03/16 03:58:07;;;;;;;13.48;6.75;;;9.80;93.00;;;;;;4869300;29;20042;-83
2024/03/16 04:00:33;;;;;;;15.43;7.43;;;9.80;93.00;;;;;;4870617;29;20587;-77
2024/03/16 04:03:11;;;;;;;14.98;7.85;;;9.80;93.00;;;;;;4869115;29;20029;-73
2024/03/16 04:05:37;;;;;;;13.30;7.05;;;9.90;93.00;;;;;;4853758;29;20069;-82
2024/03/16 04:08:05;;;;;;;18.48;7.32;;;9.90;92.80;;;;;;4871213;29;20526;-73
2024/03/16 04:10:31;;;;;;;13.57;5.57;;;9.80;92.70;;;;;;4869611;29;20084;-73
2024/03/16 04:12:56;;;;;;;17.58;6.28;;;9.70;92.60;;;;;;4871876;29;20413;-76
2024/03/16 04:15:23;;;;;;;12.93;5.97;;;9.70;92.70;;;;;;4868914;29;20053;-73
2024/03/16 04:17:49;;;;;;;13.55;6.10;;;9.70;92.60;;;;;;4865613;29;20511;-75
2024/03/16 04:20:14;;;;;;;13.40;5.43;;;9.70;92.50;;;;;;4867591;29;20040;-76
2024/03/16 04:22:41;;;;;;;14.57;5.60;;;9.70;92.20;;;;;;4869934;29;20056;-73
2024/03/16 04:25:11;;;;;;;10.68;4.75;;;9.70;92.20;;;;;;4872876;29;20034;-73
2024/03/16 04:27:43;;;;;;;14.07;5.35;;;9.70;92.10;;;;;;4868097;29;20132;-81
2024/03/16 04:30:10;;;;;;;12.23;5.55;;;9.70;92.10;;;;;;4872431;29;20062;-83
2024/03/16 04:32:36;;;;;;;14.68;5.60;;;9.70;92.10;;;;;;4866886;29;20033;-76
2024/03/16 04:35:04;;;;;;;12.75;5.57;;;9.70;92.00;;;;;;4870921;29;20136;-74
2024/03/16 04:37:30;;;;;;;12.95;6.30;;;9.70;92.00;;;;;;4853662;29;20053;-79
2024/03/16 04:39:56;;;;;;;11.23;6.90;;;9.70;91.80;;;;;;4871754;29;20032;-72
2024/03/16 04:42:22;;;;;;;15.23;7.68;;;9.70;91.60;;;;;;4870010;29;20056;-73
2024/03/16 04:44:48;;;;;;;14.27;7.05;;;9.60;91.60;;;;;;4872529;29;20036;-77
2024/03/16 04:47:13;;;;;;;15.18;7.03;;;9.60;91.60;;;;;;4851253;29;20037;-74
2024/03/16 04:49:39;;;;;;;13.32;6.85;;;9.50;91.30;;;;;;4873406;29;20895;-78
2024/03/16 04:52:05;;;;;;;13.15;6.82;;;9.40;91.30;;;;;;4874014;29;20043;-78
2024/03/16 04:54:31;;;;;;;14.68;7.05;;;9.40;91.50;;;;;;4870599;29;20498;-74
2024/03/16 04:56:57;;;;;;;16.58;7.45;;;9.50;91.50;;;;;;4868056;29;20117;-76
2024/03/16 04:59:22;;;;;;;14.05;5.88;;;9.50;91.60;;;;;;4872021;29;20058;-73
2024/03/16 05:01:48;;;;;;;10.38;5.70;;;9.40;91.50;;;;;;4869144;29;20093;-80
2024/03/16 05:04:14;;;;;;;13.10;6.07;;;9.40;91.60;;;;;;4853167;29;20192;-73
2024/03/16 05:06:40;;;;;;;12.27;5.65;;;9.40;91.80;;;;;;4864745;29;20075;-76
2024/03/16 05:09:08;;;;;;;14.07;6.07;;;9.30;91.80;;;;;;4869825;29;20453;-76
2024/03/16 05:11:34;;;;;;;17.63;6.32;;;9.30;91.70;;;;;;4861481;29;20038;-77
2024/03/16 05:14:01;;;;;;;15.15;6.35;;;9.30;91.90;;;;;;4852098;29;20037;-73
2024/03/16 05:16:27;;;;;;;12.48;5.40;;;9.30;91.90;;;;;;4867441;29;20120;-76
2024/03/16 05:18:52;;;;;;;16.15;5.80;;;9.20;91.90;;;;;;4867169;29;20105;-78
2024/03/16 05:21:18;;;;;;;14.25;5.45;;;9.20;91.90;;;;;;4870120;29;20045;-75
2024/03/16 05:23:45;;;;;;;10.27;5.20;;;9.20;92.10;;;;;;4870641;29;20077;-80
2024/03/16 05:26:12;;;;;;;11.98;5.55;;;9.20;92.20;;;;;;4869774;29;20049;-79
2024/03/16 05:28:41;;;;;;;14.30;5.03;;;9.20;92.20;;;;;;4870531;29;20044;-74
2024/03/16 05:31:10;;;;;;;13.35;5.53;;;9.20;92.20;;;;;;4869584;29;21043;-78
2024/03/16 05:33:36;;;;;;;13.77;5.68;;;9.20;92.30;;;;;;4868616;29;20025;-73
2024/03/16 05:36:09;;;;;;;13.30;6.80;;;9.30;92.40;;;;;;4853923;29;20104;-73
2024/03/16 05:38:37;;;;;;;14.07;6.30;;;9.20;92.50;;;;;;4868469;29;20077;-73
2024/03/16 05:41:05;;;;;;;10.45;6.72;;;9.20;92.60;;;;;;4867573;29;20041;-79
2024/03/16 05:43:30;;;;;;;13.32;7.05;;;9.20;92.50;;;;;;4867546;29;20095;-78
2024/03/16 05:45:56;;;;;;;15.55;6.78;;;9.20;92.50;;;;;;4868923;29;20743;-74
2024/03/16 05:48:22;;;;;;;14.80;7.22;;;9.20;92.60;;;;;;4867443;29;20026;-73
2024/03/16 05:50:53;;;;;;;15.95;7.65;;;9.20;92.70;;;;;;4870814;29;20037;-74
2024/03/16 05:53:22;;;;;;;17.60;7.10;;;9.20;92.70;;;;;;4855500;29;20116;-73
2024/03/16 05:55:49;;;;;;;15.95;7.68;;;9.20;92.70;;;;;;4865816;29;20057;-80
2024/03/16 05:58:16;;;;;;;15.52;6.93;;;9.10;92.70;;;;;;4866287;29;20075;-73
2024/03/16 06:00:41;;;;;;;12.80;6.00;;;9.10;92.70;;;;;;4869951;29;20093;-73
2024/03/16 06:03:07;;;;;;;11.25;5.75;;;9.10;92.50;;;;;;4871031;29;20033;-82
2024/03/16 06:05:35;;;;;;;15.38;6.70;;;9.10;92.60;;;;;;4866724;29;20033;-74
2024/03/16 06:08:02;;;;;;;15.80;7.47;;;9.10;92.50;;;;;;4872745;29;20040;-73
2024/03/16 06:10:27;;;;;;;13.50;5.07;;;9.10;92.40;;;;;;4866745;29;20669;-79
2024/03/16 06:12:53;;;;;;;11.45;5.60;;;9.10;92.30;;;;;;4870972;29;20045;-74
2024/03/16 06:15:19;;;;;;;13.25;4.53;;;9.10;92.10;;;;;;4872785;29;20036;-82
2024/03/16 06:17:46;;;;;;;12.20;4.13;;;9.10;92.00;;;;;;4857940;29;20033;-73
2024/03/16 06:20:15;;;;;;;11.55;3.38;;;9.10;92.00;;;;;;4873989;29;20132;-73
2024/03/16 06:22:41;;;;;;;11.02;3.40;;;9.00;92.00;;;;;;4867824;29;20089;-78
2024/03/16 06:25:08;;;;;;;9.10;3.03;;;9.10;91.90;;;;;;4874801;29;20121;-73
2024/03/16 06:27:40;;;;;;;12.93;3.88;;;9.00;92.10;;;;;;4869154;29;20042;-74
2024/03/16 06:30:07;;;;;;;9.00;2.90;;;9.10;91.90;;;;;;4869902;29;20046;-73
2024/03/16 06:32:38;;;;;;;18.02;3.58;;;9.10;91.90;;;;;;4864334;29;20041;-74
2024/03/16 06:35:05;;;;;;;12.57;2.83;;;9.10;91.80;;;;;;4867235;29;20732;-74
2024/03/16 06:37:30;;;;;;;9.27;2.70;;;9.10;91.70;;;;;;4867017;29;20045;-84
2024/03/16 06:39:56;;;;;;;12.20;2.78;;;9.10;91.60;;;;;;4869730;29;21531;-73
2024/03/16 06:42:21;;;;;;;8.25;2.72;;;9.20;91.50;;;;;;4859623;29;20145;-73
2024/03/16 06:44:47;;;;;;;9.82;2.80;;;9.20;91.40;;;;;;4816664;29;20037;-76
2024/03/16 06:47:13;;;;;;;11.50;2.83;;;9.30;91.40;;;;;;4848077;29;20459;-76
2024/03/16 06:49:38;;;;;;;8.80;2.45;;;9.30;91.20;;;;;;4845169;29;20594;-73
2024/03/16 06:52:04;;;;;;;9.90;2.42;;;9.30;91.10;;;;;;4846724;29;20041;-78
2024/03/16 06:54:30;;;;;;;9.32;2.75;;;9.20;90.90;;;;;;4848283;29;20029;-74
2024/03/16 06:56:55;;;;;;;10.50;3.72;;;9.30;90.90;;;;;;4829178;29;20049;-74
2024/03/16 06:59:21;;;;;;;10.05;2.35;;;9.30;90.80;;;;;;4850406;29;20061;-74
2024/03/16 07:01:46;;;;;;;11.35;3.70;;;9.30;90.60;;;;;;4843392;29;20452;-73
2024/03/16 07:04:15;;;;;;;9.30;2.78;;;9.30;90.60;;;;;;4850711;29;20034;-76
2024/03/16 07:06:40;;;;;;;10.45;2.20;;;9.30;90.30;;;;;;4844916;29;20037;-73
2024/03/16 07:09:08;;;;;;;6.60;2.00;;;9.30;90.40;;;;;;4832934;29;20052;-73
2024/03/16 07:11:34;;;;;;;8.13;2.60;;;9.30;90.50;;;;;;4843617;29;20042;-77
2024/03/16 07:14:00;;;;;;;11.77;2.70;;;9.40;90.20;;;;;;4841892;29;20098;-75
2024/03/16 07:16:25;;;;;;;7.70;2.45;;;9.40;90.20;;;;;;4846155;29;20507;-74
2024/03/16 07:18:51;;;;;;;8.93;2.85;;;9.40;90.30;;;;;;4842208;29;20045;-74
2024/03/16 07:21:19;;;;;;;7.45;1.95;;;9.50;89.90;;;;;;4845558;29;20048;-77
2024/03/16 07:23:47;;;;;;;6.95;2.20;;;9.50;89.70;;;;;;4845928;29;20025;-73
2024/03/16 07:26:13;;;;;;;14.02;2.92;;;9.50;89.80;;;;;;4846217;29;20938;-77
2024/03/16 07:28:39;;;;;;;8.05;2.22;;;9.50;89.20;;;;;;4846499;29;20026;-72
2024/03/16 07:31:04;;;;;;;9.07;2.28;;;9.60;89.30;;;;;;4843654;29;20133;-77
2024/03/16 07:33:30;;;;;;;12.40;3.15;;;9.60;89.00;;;;;;4842245;29;20032;-76
2024/03/16 07:35:56;;;;;;;8.00;2.60;;;9.70;89.20;;;;;;4845539;29;20046;-72
2024/03/16 07:38:21;;;;;;;14.48;3.22;;;9.80;88.80;;;;;;4842437;29;20096;-75
2024/03/16 07:40:47;;;;;;;9.27;3.17;;;9.80;88.60;;;;;;4841315;29;20041;-73
2024/03/16 07:43:16;;;;;;;6.57;2.40;;;9.90;88.50;;;;;;4837813;29;20045;-76
2024/03/16 07:45:42;;;;;;;11.05;2.78;;;10.00;88.50;;;;;;4845209;29;20037;-74
2024/03/16 07:48:08;;;;;;;12.30;2.20;;;10.10;88.30;;;;;;4842363;29;20094;-75
2024/03/16 07:50:37;;;;;;;8.15;2.42;;;10.10;87.60;;;;;;4842713;29;20120;-76
2024/03/16 07:53:06;;;;;;;8.60;2.03;;;10.10;87.00;;;;;;4848015;29;20702;-77
2024/03/16 07:55:31;;;;;;;10.00;2.90;;;10.20;86.80;;;;;;4828407;29;20042;-73
2024/03/16 07:57:57;;;;;;;7.07;1.92;;;10.40;86.30;;;;;;4838624;29;20040;-78
2024/03/16 08:00:23;;;;;;;8.50;1.92;;;10.40;85.80;;;;;;4839996;29;20038;-76
2024/03/16 08:02:49;;;;;;;10.98;2.42;;;10.30;85.20;;;;;;4843517;29;20161;-75
2024/03/16 08:05:15;;;;;;;14.55;2.60;;;10.40;85.10;;;;;;4845486;29;20125;-72
2024/03/16 08:07:41;;;;;;;8.40;2.10;;;10.50;84.70;;;;;;4844595;29;20447;-72
2024/03/16 08:10:09;;;;;;;6.38;1.65;;;10.50;84.10;;;;;;4842512;29;20398;-76
2024/03/16 08:12:36;;;;;;;7.50;2.00;;;10.40;83.50;;;;;;4839535;29;20034;-72
2024/03/16 08:15:02;;;;;;;7.28;2.20;;;10.40;83.90;;;;;;4826367;29;20041;-73
2024/03/16 08:17:28;;;;;;;8.50;2.00;;;10.40;83.60;;;;;;4841528;29;20162;-72
2024/03/16 08:19:55;;;;;;;7.43;2.15;;;10.50;83.60;;;;;;4845218;29;20482;-77
2024/03/16 08:22:21;;;;;;;5.45;1.83;;;10.60;82.80;;;;;;4841216;29;20641;-72
2024/03/16 08:24:47;;;;;;;6.45;1.88;;;10.50;82.00;;;;;;4847723;29;20037;-75
2024/03/16 08:27:13;;;;;;;6.75;2.35;;;10.40;82.00;;;;;;4827088;29;20057;-75
2024/03/16 08:29:39;;;;;;;8.30;3.10;;;10.40;81.20;;;;;;4845504;29;20018;-72
2024/03/16 08:32:05;;;;;;;7.28;2.13;;;10.40;80.90;;;;;;4840408;29;20048;-72
2024/03/16 08:34:31;;;;;;;11.35;2.20;;;10.40;80.50;;;;;;4836849;29;20045;-73
2024/03/16 08:36:57;;;;;;;6.32;2.00;;;10.60;80.90;;;;;;4827213;29;20083;-72
2024/03/16 08:39:26;;;;;;;4.30;1.70;;;10.80;80.10;;;;;;4842083;29;20090;-73
2024/03/16 08:41:52;;;;;;;6.57;2.10;;;10.90;80.30;;;;;;4846368;29;20072;-73
2024/03/16 08:44:18;;;;;;;5.50;1.70;;;10.80;78.80;;;;;;4859393;29;20276;-75
2024/03/16 08:46:44;;;;;;;6.38;1.90;;;10.70;78.00;;;;;;4859729;29;20459;-73
2024/03/16 08:49:10;;;;;;;5.82;1.48;;;10.60;78.50;;;;;;4857657;29;20124;-73
2024/03/16 08:51:36;;;;;;;4.68;1.67;;;10.70;77.90;;;;;;4852979;29;20036;-72
2024/03/16 08:54:01;;;;;;;3.50;1.30;;;10.60;76.30;;;;;;4856784;29;20056;-75
2024/03/16 08:56:27;;;;;;;3.75;1.30;;;10.70;76.60;;;;;;4863820;29;20548;-72
2024/03/16 08:58:54;;;;;;;4.65;1.30;;;10.70;77.10;;;;;;4861804;29;20101;-73
2024/03/16 09:01:20;;;;;;;4.80;1.40;;;10.70;76.90;;;;;;4860407;29;20035;-75
2024/03/16 09:03:46;;;;;;;4.97;1.52;;;10.60;76.10;;;;;;4860296;29;20033;-72
2024/03/16 09:06:12;;;;;;;1.98;0.90;;;10.60;76.70;;;;;;4860195;29;20049;-72
2024/03/16 09:08:38;;;;;;;2.70;1.25;;;10.70;74.70;;;;;;4860335;29;20044;-73
2024/03/16 09:11:04;;;;;;;1.50;1.00;;;11.10;73.90;;;;;;4860636;29;20049;-73
2024/03/16 09:13:33;;;;;;;3.55;1.20;;;11.30;72.80;;;;;;4861217;29;20378;-78
2024/03/16 09:16:05;;;;;;;2.63;1.08;;;11.60;71.90;;;;;;4862451;29;20045;-72
2024/03/16 09:18:35;;;;;;;2.33;1.10;;;11.60;71.20;;;;;;4860536;29;20103;-75
2024/03/16 09:21:05;;;;;;;5.90;1.50;;;11.40;71.90;;;;;;4863157;29;20040;-72
2024/03/16 09:23:30;;;;;;;8.05;2.10;;;11.40;71.10;;;;;;4863177;29;20172;-75
2024/03/16 09:25:56;;;;;;;6.88;1.63;;;11.40;71.60;;;;;;4861709;29;20349;-72
2024/03/16 09:28:22;;;;;;;4.43;1.52;;;11.20;72.60;;;;;;4853919;29;20028;-75
2024/03/16 09:30:48;;;;;;;4.30;1.48;;;11.30;72.60;;;;;;4861667;29;20614;-73
2024/03/16 09:33:15;;;;;;;5.00;1.48;;;11.40;71.60;;;;;;4858561;29;20109;-71
2024/03/16 09:35:45;;;;;;;2.97;1.30;;;11.50;71.20;;;;;;4852125;29;20581;-73
2024/03/16 09:38:11;;;;;;;8.68;1.70;;;11.50;71.90;;;;;;4860501;29;20628;-75
2024/03/16 09:40:42;;;;;;;3.88;1.50;;;11.50;71.80;;;;;;4860960;29;20021;-72
2024/03/16 09:43:09;;;;;;;5.55;1.70;;;11.40;70.50;;;;;;4853981;29;20051;-76
2024/03/16 09:45:35;;;;;;;6.00;1.50;;;11.30;71.30;;;;;;4860227;29;20033;-73
2024/03/16 09:48:03;;;;;;;5.07;1.85;;;11.20;72.00;;;;;;4864192;29;20271;-72
2024/03/16 09:50:30;;;;;;;5.93;2.38;;;11.10;72.70;;;;;;4864384;29;20025;-74
2024/03/16 09:52:57;;;;;;;7.55;1.77;;;11.00;73.60;;;;;;4868495;29;20043;-75
2024/03/16 09:55:25;;;;;;;5.50;1.83;;;11.00;73.90;;;;;;4857344;29;20274;-73
2024/03/16 09:57:52;;;;;;;6.03;1.80;;;11.10;74.30;;;;;;4862242;29;20052;-72
2024/03/16 10:00:17;;;;;;;6.38;2.10;;;11.10;74.50;;;;;;4859311;29;20033;-76
2024/03/16 10:02:44;;;;;;;7.43;1.85;;;11.10;74.90;;;;;;4861908;29;20031;-74
2024/03/16 10:05:13;;;;;;;7.80;1.67;;;11.00;74.80;;;;;;4867849;29;20275;-72
2024/03/16 10:07:39;;;;;;;7.60;1.88;;;10.90;75.00;;;;;;4861522;29;20037;-76
2024/03/16 10:10:10;;;;;;;6.03;1.85;;;10.90;75.00;;;;;;4874332;29;20040;-73
2024/03/16 10:12:38;;;;;;;9.48;2.33;;;11.10;76.50;;;;;;4854071;29;20049;-72
2024/03/16 10:15:08;;;;;;;9.32;2.60;;;11.00;77.90;;;;;;4858100;29;20041;-73
2024/03/16 10:17:37;;;;;;;5.00;1.70;;;11.00;76.70;;;;;;4867175;29;20060;-73
2024/03/16 10:20:16;;;;;;;6.97;1.63;;;10.80;75.50;;;;;;4850922;29;20018;-73
2024/03/16 10:22:46;;;;;;;5.38;1.27;;;10.80;76.10;;;;;;4863732;29;20076;-73
2024/03/16 10:25:13;;;;;;;6.63;1.75;;;10.90;75.40;;;;;;4865956;29;20523;-75
2024/03/16 10:27:44;;;;;;;6.80;1.88;;;11.10;75.30;;;;;;4861337;29;20041;-72
2024/03/16 10:30:11;;;;;;;8.15;2.05;;;11.20;74.70;;;;;;4863968;29;20036;-76
2024/03/16 10:32:38;;;;;;;7.63;1.70;;;11.30;74.50;;;;;;4867251;29;20037;-73
2024/03/16 10:35:14;;;;;;;5.90;2.13;;;11.40;74.00;;;;;;4860991;29;20078;-72
2024/03/16 10:37:43;;;;;;;8.20;1.75;;;11.30;74.50;;;;;;4867113;29;20053;-74
2024/03/16 10:40:14;;;;;;;6.32;1.90;;;11.50;74.80;;;;;;4868536;29;20054;-75
2024/03/16 10:42:44;;;;;;;8.63;2.85;;;11.60;73.90;;;;;;4863573;29;20045;-73
2024/03/16 10:45:16;;;;;;;8.05;2.38;;;11.60;74.10;;;;;;4862420;29;20074;-75
2024/03/16 10:47:43;;;;;;;11.40;3.25;;;11.30;74.40;;;;;;4857165;29;20629;-72
2024/03/16 10:50:12;;;;;;;6.93;2.22;;;11.50;74.30;;;;;;4861833;29;20040;-75
2024/03/16 10:52:41;;;;;;;7.53;2.30;;;11.60;74.70;;;;;;4860416;29;21392;-75
2024/03/16 10:55:15;;;;;;;4.45;1.80;;;11.80;74.50;;;;;;4866788;29;20037;-72
2024/03/16 10:57:46;;;;;;;5.88;2.50;;;12.00;73.50;;;;;;4865820;29;20066;-73
2024/03/16 11:00:23;;;;;;;6.60;1.92;;;12.20;73.00;;;;;;4863443;29;20037;-77
2024/03/16 11:03:07;;;;;;;5.90;1.50;;;12.20;69.70;;;;;;4862015;29;20128;-77
2024/03/16 11:05:35;;;;;;;7.15;1.90;;;12.10;69.10;;;;;;4852491;29;20038;-72
2024/03/16 11:08:21;;;;;;;5.28;1.90;;;12.20;69.30;;;;;;4857114;29;20091;-76
2024/03/16 11:10:50;;;;;;;4.55;1.95;;;12.30;68.90;;;;;;4856954;29;20056;-72
2024/03/16 11:13:17;;;;;;;5.32;2.00;;;12.30;67.90;;;;;;4864896;29;20102;-76
2024/03/16 11:15:53;;;;;;;5.72;2.10;;;12.30;68.60;;;;;;4863631;29;20033;-72
2024/03/16 11:18:19;;;;;;;4.43;2.00;;;12.20;68.70;;;;;;4863221;29;20847;-72
2024/03/16 11:20:56;;;;;;;5.63;1.58;;;12.20;68.70;;;;;;4856297;29;20044;-71
2024/03/16 11:23:27;;;;;;;4.97;1.88;;;12.30;68.60;;;;;;4861023;29;20045;-72
2024/03/16 11:25:52;;;;;;;6.03;1.58;;;12.40;68.50;;;;;;4862269;29;20096;-77
2024/03/16 11:28:19;;;;;;;3.88;1.50;;;12.30;68.30;;;;;;4863387;29;20124;-71
2024/03/16 11:30:46;;;;;;;3.30;1.40;;;12.40;68.20;;;;;;4857744;29;20091;-72
2024/03/16 11:33:21;;;;;;;4.80;1.50;;;12.40;67.90;;;;;;4848665;29;20032;-71
2024/03/16 11:35:47;;;;;;;4.55;1.98;;;12.50;68.10;;;;;;4864618;29;20041;-73
2024/03/16 11:38:15;;;;;;;5.97;1.90;;;12.50;67.50;;;;;;4865127;29;20040;-74
2024/03/16 11:40:48;;;;;;;5.25;1.85;;;12.40;67.40;;;;;;4856691;29;20033;-72
2024/03/16 11:43:15;;;;;;;5.30;2.20;;;12.60;68.10;;;;;;4860538;29;20068;-74
2024/03/16 11:45:49;;;;;;;4.50;1.80;;;12.70;66.50;;;;;;4860333;29;20532;-71
2024/03/16 11:48:16;;;;;;;6.70;1.95;;;12.80;66.90;;;;;;4859018;29;20076;-71
2024/03/16 11:50:43;;;;;;;5.28;1.80;;;12.80;67.50;;;;;;4859024;29;20025;-77
2024/03/16 11:53:12;;;;;;;5.38;1.60;;;13.00;67.90;;;;;;4860012;29;20041;-72
2024/03/16 11:55:38;;;;;;;5.45;1.95;;;13.10;67.40;;;;;;4860671;29;20112;-71
2024/03/16 11:58:04;;;;;;;5.47;1.73;;;12.80;66.40;;;;;;4860079;29;20045;-74
2024/03/16 12:00:30;;;;;;;6.93;1.90;;;12.70;66.90;;;;;;4859382;29;20052;-73
2024/03/16 12:03:03;;;;;;;5.35;1.80;;;12.60;68.50;;;;;;4858240;29;20040;-72
2024/03/16 12:05:30;;;;;;;4.20;1.60;;;12.80;68.10;;;;;;4862280;29;20029;-71
2024/03/16 12:07:56;;;;;;;5.78;1.92;;;12.80;66.70;;;;;;4863788;29;20040;-75
2024/03/16 12:10:23;;;;;;;4.95;1.45;;;12.60;66.20;;;;;;4864846;29;20044;-73
2024/03/16 12:12:52;;;;;;;5.85;1.88;;;12.80;65.70;;;;;;4859770;29;20799;-79
2024/03/16 12:15:19;;;;;;;4.65;2.13;;;13.10;66.90;;;;;;4858834;29;20037;-76
2024/03/16 12:17:48;;;;;;;4.50;1.58;;;12.90;65.40;;;;;;4860858;29;20045;-71
2024/03/16 12:20:18;;;;;;;5.70;1.60;;;12.80;64.90;;;;;;4846643;29;20525;-78
2024/03/16 12:22:44;;;;;;;3.42;1.55;;;12.90;66.00;;;;;;4860381;29;20079;-78
2024/03/16 12:25:11;;;;;;;4.97;1.60;;;12.70;66.00;;;;;;4858945;29;20036;-72
2024/03/16 12:27:41;;;;;;;7.68;1.70;;;12.70;66.30;;;;;;4851934;29;20053;-72
2024/03/16 12:30:08;;;;;;;5.03;1.67;;;12.80;67.00;;;;;;4858081;29;20042;-73
2024/03/16 12:32:35;;;;;;;6.25;1.80;;;12.70;66.30;;;;;;4831422;29;20110;-77
2024/03/16 12:35:01;;;;;;;8.85;2.20;;;12.60;66.60;;;;;;4859042;29;20061;-72
2024/03/16 12:37:26;;;;;;;6.38;2.78;;;12.60;67.90;;;;;;4859524;29;20124;-76
2024/03/16 12:39:52;;;;;;;4.72;2.05;;;12.70;67.40;;;;;;4870775;29;20025;-72
2024/03/16 12:42:17;;;;;;;5.95;2.10;;;12.60;66.40;;;;;;4867423;29;20064;-72
2024/03/16 12:44:49;;;;;;;4.30;1.67;;;12.80;67.20;;;;;;4876801;29;20513;-74